Onsted, Michigan
Current Conditions -  °F | °C
As of 7:53 PM on Friday 24 Oct 2014 (Local Time) from KADG Reporting Station
Few Clouds Few Clouds  
Wind Chill: 52°   Ceiling: Unl
Heat Index: 52°   Visibility: 9mi
Dew Point: 45°   Wind: 3mph
Humidity: 77%   Direction: 170°S
Pressure: 30"   Gusts: NA
Location:  42.01°N, 84.19°W
Report Text: KADG 242353Z AUTO 17003KT 9SM FEW041 11/07 A3000 RMK AO2 SLP168 T01110072 10144 20111 55000
Loading
Personal Weather Stations






























Interactive Weather Map
Tropical Storm Tracking
New forecast layout! Learn more

10-Day Weather Forecast

Advertisements
Track Severe Weather on mobile